<?xml version="1.0" encoding="UTF-8" standalone="no" ?>
<gpx xmlns="http://www.topografix.com/GPX/1/1" creator="MapSource 6.12.2" version="1.1" xmlns:xsi="http://www.w3.org/2001/XMLSchema-instance" xsi:schemaLocation="http://www.topografix.com/GPX/1/1 http://www.topografix.com/GPX/1/1/gpx.xsd">

  <metadata>
    <link href="http://www.garmin.com">
      <text>Garmin International</text>
    </link>
    <time>2008-04-16T13:18:40Z</time>
    <bounds maxlat="43.1104589" maxlon="23.4016728" minlat="43.0874991" minlon="23.3785343"/>
  </metadata>

  <wpt lat="43.0884020" lon="23.3850146">
    <ele>382.0000000</ele>
    <time>2008-04-16T13:16:20Z</time>
    <name>01</name>
    <sym>Flag</sym>
    <extensions>
      <gpxx:WaypointExtension xmlns:gpxx="http://www.garmin.com/xmlschemas/GpxExtensions/v3" xmlns:xsi="http://www.w3.org/2001/XMLSchema-instance" xsi:schemaLocation="http://www.garmin.com/xmlschemas/GpxExtensions/v3 http://www.garmin.com/xmlschemas/GpxExtensions/v3/GpxExtensionsv3.xsd">
        <gpxx:DisplayMode>SymbolAndName</gpxx:DisplayMode>
      </gpxx:WaypointExtension>
    </extensions>
  </wpt>

  <wpt lat="43.1077938" lon="23.3909393">
    <ele>741.0000000</ele>
    <time>2008-04-16T13:16:51Z</time>
    <name>03</name>
    <sym>Flag</sym>
    <extensions>
      <gpxx:WaypointExtension xmlns:gpxx="http://www.garmin.com/xmlschemas/GpxExtensions/v3" xmlns:xsi="http://www.w3.org/2001/XMLSchema-instance" xsi:schemaLocation="http://www.garmin.com/xmlschemas/GpxExtensions/v3 http://www.garmin.com/xmlschemas/GpxExtensions/v3/GpxExtensionsv3.xsd">
        <gpxx:DisplayMode>SymbolAndName</gpxx:DisplayMode>
      </gpxx:WaypointExtension>
    </extensions>
  </wpt>

  <wpt lat="43.0908473" lon="23.3849041">
    <ele>688.0000000</ele>
    <time>2008-04-16T13:17:33Z</time>
    <name>07</name>
    <sym>Flag</sym>
    <extensions>
      <gpxx:WaypointExtension xmlns:gpxx="http://www.garmin.com/xmlschemas/GpxExtensions/v3" xmlns:xsi="http://www.w3.org/2001/XMLSchema-instance" xsi:schemaLocation="http://www.garmin.com/xmlschemas/GpxExtensions/v3 http://www.garmin.com/xmlschemas/GpxExtensions/v3/GpxExtensionsv3.xsd">
        <gpxx:DisplayMode>SymbolAndName</gpxx:DisplayMode>
      </gpxx:WaypointExtension>
    </extensions>
  </wpt>

  <wpt lat="43.0876229" lon="23.3785343">
    <ele>484.0000000</ele>
    <time>2008-04-16T13:18:19Z</time>
    <name>09</name>
    <sym>Flag</sym>
    <extensions>
      <gpxx:WaypointExtension xmlns:gpxx="http://www.garmin.com/xmlschemas/GpxExtensions/v3" xmlns:xsi="http://www.w3.org/2001/XMLSchema-instance" xsi:schemaLocation="http://www.garmin.com/xmlschemas/GpxExtensions/v3 http://www.garmin.com/xmlschemas/GpxExtensions/v3/GpxExtensionsv3.xsd">
        <gpxx:DisplayMode>SymbolAndName</gpxx:DisplayMode>
      </gpxx:WaypointExtension>
    </extensions>
  </wpt>

  <trk>
    <name>Lakatnik</name>
    <extensions>
      <gpxx:TrackExtension xmlns:gpxx="http://www.garmin.com/xmlschemas/GpxExtensions/v3" xmlns:xsi="http://www.w3.org/2001/XMLSchema-instance" xsi:schemaLocation="http://www.garmin.com/xmlschemas/GpxExtensions/v3 http://www.garmin.com/xmlschemas/GpxExtensions/v3/GpxExtensionsv3.xsd">
        <gpxx:DisplayColor>White</gpxx:DisplayColor>
      </gpxx:TrackExtension>
    </extensions>
    <trkseg>
      <trkpt lat="43.0884004" lon="23.3850217">
        <ele>382.7420654</ele>
        <time>2008-04-10T08:15:07Z</time>
      </trkpt>
      <trkpt lat="43.0883789" lon="23.3852148">
        <ele>378.4161377</ele>
        <time>2008-04-10T08:24:53Z</time>
      </trkpt>
      <trkpt lat="43.0882072" lon="23.3872747">
        <ele>378.8968506</ele>
        <time>2008-04-10T08:25:13Z</time>
      </trkpt>
      <trkpt lat="43.0880356" lon="23.3893347">
        <ele>380.3387451</ele>
        <time>2008-04-10T08:25:56Z</time>
      </trkpt>
      <trkpt lat="43.0880141" lon="23.3904290">
        <ele>380.8194580</ele>
        <time>2008-04-10T08:27:37Z</time>
      </trkpt>
      <trkpt lat="43.0880141" lon="23.3912230">
        <ele>383.2226563</ele>
        <time>2008-04-10T08:28:16Z</time>
      </trkpt>
      <trkpt lat="43.0880785" lon="23.3917594">
        <ele>384.1840820</ele>
        <time>2008-04-10T08:28:32Z</time>
      </trkpt>
      <trkpt lat="43.0881000" lon="23.3924675">
        <ele>385.1453857</ele>
        <time>2008-04-10T08:29:01Z</time>
      </trkpt>
      <trkpt lat="43.0881000" lon="23.3936906">
        <ele>388.0292969</ele>
        <time>2008-04-10T08:29:53Z</time>
      </trkpt>
      <trkpt lat="43.0882502" lon="23.3947420">
        <ele>391.8745117</ele>
        <time>2008-04-10T08:30:40Z</time>
      </trkpt>
      <trkpt lat="43.0882502" lon="23.3947635">
        <ele>393.3165283</ele>
        <time>2008-04-10T08:30:55Z</time>
      </trkpt>
      <trkpt lat="43.0882716" lon="23.3948064">
        <ele>393.3165283</ele>
        <time>2008-04-10T08:31:09Z</time>
      </trkpt>
      <trkpt lat="43.0882716" lon="23.3951712">
        <ele>395.2391357</ele>
        <time>2008-04-10T08:31:28Z</time>
      </trkpt>
      <trkpt lat="43.0883789" lon="23.3961582">
        <ele>398.6037598</ele>
        <time>2008-04-10T08:32:14Z</time>
      </trkpt>
      <trkpt lat="43.0884647" lon="23.3970594">
        <ele>400.0458984</ele>
        <time>2008-04-10T08:32:56Z</time>
      </trkpt>
      <trkpt lat="43.0884433" lon="23.3973384">
        <ele>401.0070801</ele>
        <time>2008-04-10T08:33:11Z</time>
      </trkpt>
      <trkpt lat="43.0884433" lon="23.3974457">
        <ele>402.4490967</ele>
        <time>2008-04-10T08:33:29Z</time>
      </trkpt>
      <trkpt lat="43.0884433" lon="23.3977032">
        <ele>405.8137207</ele>
        <time>2008-04-10T08:33:43Z</time>
      </trkpt>
      <trkpt lat="43.0885077" lon="23.3975315">
        <ele>406.7749023</ele>
        <time>2008-04-10T08:34:19Z</time>
      </trkpt>
      <trkpt lat="43.0885077" lon="23.3976388">
        <ele>407.7363281</ele>
        <time>2008-04-10T08:35:00Z</time>
      </trkpt>
      <trkpt lat="43.0885077" lon="23.3976817">
        <ele>408.6976318</ele>
        <time>2008-04-10T08:35:44Z</time>
      </trkpt>
      <trkpt lat="43.0885506" lon="23.3978105">
        <ele>413.5042725</ele>
        <time>2008-04-10T08:37:40Z</time>
      </trkpt>
      <trkpt lat="43.0885720" lon="23.3977675">
        <ele>414.4654541</ele>
        <time>2008-04-10T08:38:05Z</time>
      </trkpt>
      <trkpt lat="43.0887866" lon="23.3979821">
        <ele>416.8688965</ele>
        <time>2008-04-10T08:38:22Z</time>
      </trkpt>
      <trkpt lat="43.0891085" lon="23.3981752">
        <ele>419.7528076</ele>
        <time>2008-04-10T08:38:51Z</time>
      </trkpt>
      <trkpt lat="43.0891943" lon="23.3981109">
        <ele>417.8302002</ele>
        <time>2008-04-10T08:39:11Z</time>
      </trkpt>
      <trkpt lat="43.0899239" lon="23.3977032">
        <ele>421.6754150</ele>
        <time>2008-04-10T08:39:40Z</time>
      </trkpt>
      <trkpt lat="43.0903745" lon="23.3981323">
        <ele>421.1948242</ele>
        <time>2008-04-10T08:40:08Z</time>
      </trkpt>
      <trkpt lat="43.0908895" lon="23.3981109">
        <ele>422.1560059</ele>
        <time>2008-04-10T08:40:40Z</time>
      </trkpt>
      <trkpt lat="43.0908036" lon="23.3987546">
        <ele>423.1174316</ele>
        <time>2008-04-10T08:41:04Z</time>
      </trkpt>
      <trkpt lat="43.0901384" lon="23.3998060">
        <ele>428.8853760</ele>
        <time>2008-04-10T08:42:01Z</time>
      </trkpt>
      <trkpt lat="43.0899882" lon="23.3999133">
        <ele>439.4597168</ele>
        <time>2008-04-10T08:42:07Z</time>
      </trkpt>
      <trkpt lat="43.0894947" lon="23.3996987">
        <ele>450.0344238</ele>
        <time>2008-04-10T08:42:36Z</time>
      </trkpt>
      <trkpt lat="43.0892587" lon="23.3998060">
        <ele>449.0729980</ele>
        <time>2008-04-10T08:43:08Z</time>
      </trkpt>
      <trkpt lat="43.0892587" lon="23.3999562">
        <ele>450.0344238</ele>
        <time>2008-04-10T08:43:33Z</time>
      </trkpt>
      <trkpt lat="43.0901599" lon="23.4002137">
        <ele>450.5150146</ele>
        <time>2008-04-10T08:43:43Z</time>
      </trkpt>
      <trkpt lat="43.0905676" lon="23.3999991">
        <ele>452.4376221</ele>
        <time>2008-04-10T08:44:01Z</time>
      </trkpt>
      <trkpt lat="43.0912757" lon="23.3995700">
        <ele>452.9182129</ele>
        <time>2008-04-10T08:44:38Z</time>
      </trkpt>
      <trkpt lat="43.0918765" lon="23.3988619">
        <ele>452.9182129</ele>
        <time>2008-04-10T08:45:21Z</time>
      </trkpt>
      <trkpt lat="43.0923271" lon="23.3985615">
        <ele>451.9570313</ele>
        <time>2008-04-10T08:45:52Z</time>
      </trkpt>
      <trkpt lat="43.0912971" lon="23.3995485">
        <ele>451.9570313</ele>
        <time>2008-04-10T08:46:05Z</time>
      </trkpt>
      <trkpt lat="43.0910826" lon="23.4004498">
        <ele>456.7635498</ele>
        <time>2008-04-10T08:46:41Z</time>
      </trkpt>
      <trkpt lat="43.0897522" lon="23.4011793">
        <ele>458.6861572</ele>
        <time>2008-04-10T08:47:43Z</time>
      </trkpt>
      <trkpt lat="43.0894947" lon="23.4013724">
        <ele>463.0120850</ele>
        <time>2008-04-10T08:48:07Z</time>
      </trkpt>
      <trkpt lat="43.0895805" lon="23.4016728">
        <ele>467.3381348</ele>
        <time>2008-04-10T08:48:25Z</time>
      </trkpt>
      <trkpt lat="43.0900311" lon="23.4014797">
        <ele>468.7800293</ele>
        <time>2008-04-10T08:48:30Z</time>
      </trkpt>
      <trkpt lat="43.0906320" lon="23.4012866">
        <ele>472.6253662</ele>
        <time>2008-04-10T08:49:05Z</time>
      </trkpt>
      <trkpt lat="43.0916619" lon="23.4006000">
        <ele>471.6639404</ele>
        <time>2008-04-10T08:50:12Z</time>
      </trkpt>
      <trkpt lat="43.0922842" lon="23.3997631">
        <ele>473.1060791</ele>
        <time>2008-04-10T08:51:03Z</time>
      </trkpt>
      <trkpt lat="43.0927134" lon="23.3993769">
        <ele>476.9512939</ele>
        <time>2008-04-10T08:51:41Z</time>
      </trkpt>
      <trkpt lat="43.0927134" lon="23.3993554">
        <ele>480.3159180</ele>
        <time>2008-04-10T08:52:15Z</time>
      </trkpt>
      <trkpt lat="43.0927134" lon="23.3993340">
        <ele>490.8903809</ele>
        <time>2008-04-10T08:54:52Z</time>
      </trkpt>
      <trkpt lat="43.0933785" lon="23.3993340">
        <ele>494.7355957</ele>
        <time>2008-04-10T08:55:39Z</time>
      </trkpt>
      <trkpt lat="43.0940652" lon="23.3990550">
        <ele>497.6196289</ele>
        <time>2008-04-10T08:56:15Z</time>
      </trkpt>
      <trkpt lat="43.0952239" lon="23.3990335">
        <ele>502.4261475</ele>
        <time>2008-04-10T08:57:15Z</time>
      </trkpt>
      <trkpt lat="43.0958891" lon="23.3988833">
        <ele>512.5200195</ele>
        <time>2008-04-10T08:57:51Z</time>
      </trkpt>
      <trkpt lat="43.0967903" lon="23.3984327">
        <ele>516.3652344</ele>
        <time>2008-04-10T08:58:43Z</time>
      </trkpt>
      <trkpt lat="43.0972838" lon="23.3981752">
        <ele>516.3652344</ele>
        <time>2008-04-10T08:59:24Z</time>
      </trkpt>
      <trkpt lat="43.0975199" lon="23.3974886">
        <ele>520.6912842</ele>
        <time>2008-04-10T08:59:57Z</time>
      </trkpt>
      <trkpt lat="43.0978417" lon="23.3964801">
        <ele>521.6525879</ele>
        <time>2008-04-10T09:00:41Z</time>
      </trkpt>
      <trkpt lat="43.0976272" lon="23.3967590">
        <ele>522.1331787</ele>
        <time>2008-04-10T09:00:57Z</time>
      </trkpt>
      <trkpt lat="43.0974340" lon="23.3975101">
        <ele>529.8237305</ele>
        <time>2008-04-10T09:01:30Z</time>
      </trkpt>
      <trkpt lat="43.0974340" lon="23.3975959">
        <ele>534.1496582</ele>
        <time>2008-04-10T09:01:48Z</time>
      </trkpt>
      <trkpt lat="43.0975842" lon="23.3986688">
        <ele>547.1274414</ele>
        <time>2008-04-10T09:03:38Z</time>
      </trkpt>
      <trkpt lat="43.0973482" lon="23.3988619">
        <ele>551.9340820</ele>
        <time>2008-04-10T09:04:04Z</time>
      </trkpt>
      <trkpt lat="43.0968118" lon="23.3990121">
        <ele>554.3374023</ele>
        <time>2008-04-10T09:04:36Z</time>
      </trkpt>
      <trkpt lat="43.0959320" lon="23.3998489">
        <ele>603.3645020</ele>
        <time>2008-04-10T09:05:37Z</time>
      </trkpt>
      <trkpt lat="43.0955243" lon="23.4001708">
        <ele>600.9611816</ele>
        <time>2008-04-10T09:05:47Z</time>
      </trkpt>
      <trkpt lat="43.0954385" lon="23.4003210">
        <ele>581.2543945</ele>
        <time>2008-04-10T09:06:06Z</time>
      </trkpt>
      <trkpt lat="43.0957389" lon="23.4004068">
        <ele>584.6188965</ele>
        <time>2008-04-10T09:06:28Z</time>
      </trkpt>
      <trkpt lat="43.0961466" lon="23.4000850">
        <ele>587.0219727</ele>
        <time>2008-04-10T09:06:49Z</time>
      </trkpt>
      <trkpt lat="43.0962110" lon="23.3999991">
        <ele>587.9833984</ele>
        <time>2008-04-10T09:07:07Z</time>
      </trkpt>
      <trkpt lat="43.0964255" lon="23.3999348">
        <ele>589.9062500</ele>
        <time>2008-04-10T09:07:36Z</time>
      </trkpt>
      <trkpt lat="43.0972838" lon="23.3997202">
        <ele>591.8288574</ele>
        <time>2008-04-10T09:08:02Z</time>
      </trkpt>
      <trkpt lat="43.0981636" lon="23.3995056">
        <ele>592.7902832</ele>
        <time>2008-04-10T09:08:28Z</time>
      </trkpt>
      <trkpt lat="43.0981851" lon="23.3994627">
        <ele>592.7902832</ele>
        <time>2008-04-10T09:08:30Z</time>
      </trkpt>
      <trkpt lat="43.0981421" lon="23.3990121">
        <ele>594.2321777</ele>
        <time>2008-04-10T09:08:41Z</time>
      </trkpt>
      <trkpt lat="43.0982065" lon="23.3978105">
        <ele>594.7126465</ele>
        <time>2008-04-10T09:09:23Z</time>
      </trkpt>
      <trkpt lat="43.0984855" lon="23.3975744">
        <ele>594.7126465</ele>
        <time>2008-04-10T09:09:39Z</time>
      </trkpt>
      <trkpt lat="43.0985284" lon="23.3974242">
        <ele>596.1547852</ele>
        <time>2008-04-10T09:09:44Z</time>
      </trkpt>
      <trkpt lat="43.0988288" lon="23.3966088">
        <ele>598.0773926</ele>
        <time>2008-04-10T09:10:14Z</time>
      </trkpt>
      <trkpt lat="43.0993223" lon="23.3961153">
        <ele>599.5192871</ele>
        <time>2008-04-10T09:10:42Z</time>
      </trkpt>
      <trkpt lat="43.1000733" lon="23.3955789">
        <ele>605.2873535</ele>
        <time>2008-04-10T09:11:26Z</time>
      </trkpt>
      <trkpt lat="43.1010389" lon="23.3951712">
        <ele>608.6518555</ele>
        <time>2008-04-10T09:12:16Z</time>
      </trkpt>
      <trkpt lat="43.1011248" lon="23.3953214">
        <ele>609.6132813</ele>
        <time>2008-04-10T09:12:22Z</time>
      </trkpt>
      <trkpt lat="43.1010389" lon="23.3952999">
        <ele>608.6518555</ele>
        <time>2008-04-10T09:12:31Z</time>
      </trkpt>
      <trkpt lat="43.1007600" lon="23.3954930">
        <ele>609.1325684</ele>
        <time>2008-04-10T09:12:48Z</time>
      </trkpt>
      <trkpt lat="43.0999446" lon="23.3963084">
        <ele>608.6518555</ele>
        <time>2008-04-10T09:13:41Z</time>
      </trkpt>
      <trkpt lat="43.0994296" lon="23.3965015">
        <ele>661.0437012</ele>
        <time>2008-04-10T09:13:52Z</time>
      </trkpt>
      <trkpt lat="43.0994940" lon="23.3967590">
        <ele>663.9274902</ele>
        <time>2008-04-10T09:14:07Z</time>
      </trkpt>
      <trkpt lat="43.0992579" lon="23.3973169">
        <ele>649.0270996</ele>
        <time>2008-04-10T09:14:32Z</time>
      </trkpt>
      <trkpt lat="43.0991936" lon="23.3975744">
        <ele>643.7399902</ele>
        <time>2008-04-10T09:15:02Z</time>
      </trkpt>
      <trkpt lat="43.0991936" lon="23.3976817">
        <ele>641.3366699</ele>
        <time>2008-04-10T09:15:37Z</time>
      </trkpt>
      <trkpt lat="43.0993009" lon="23.3976817">
        <ele>642.2980957</ele>
        <time>2008-04-10T09:16:29Z</time>
      </trkpt>
      <trkpt lat="43.0994725" lon="23.3969736">
        <ele>642.7788086</ele>
        <time>2008-04-10T09:16:53Z</time>
      </trkpt>
      <trkpt lat="43.1001806" lon="23.3959007">
        <ele>648.5463867</ele>
        <time>2008-04-10T09:17:39Z</time>
      </trkpt>
      <trkpt lat="43.1013823" lon="23.3958793">
        <ele>649.5078125</ele>
        <time>2008-04-10T09:18:22Z</time>
      </trkpt>
      <trkpt lat="43.1020474" lon="23.3956432">
        <ele>653.3532715</ele>
        <time>2008-04-10T09:18:57Z</time>
      </trkpt>
      <trkpt lat="43.1029916" lon="23.3954287">
        <ele>655.2758789</ele>
        <time>2008-04-10T09:19:49Z</time>
      </trkpt>
      <trkpt lat="43.1030130" lon="23.3949351">
        <ele>659.1210938</ele>
        <time>2008-04-10T09:20:08Z</time>
      </trkpt>
      <trkpt lat="43.1029487" lon="23.3939481">
        <ele>660.0822754</ele>
        <time>2008-04-10T09:20:46Z</time>
      </trkpt>
      <trkpt lat="43.1032276" lon="23.3934546">
        <ele>664.4082031</ele>
        <time>2008-04-10T09:21:12Z</time>
      </trkpt>
      <trkpt lat="43.1041718" lon="23.3922529">
        <ele>676.9055176</ele>
        <time>2008-04-10T09:22:22Z</time>
      </trkpt>
      <trkpt lat="43.1048369" lon="23.3919740">
        <ele>681.2314453</ele>
        <time>2008-04-10T09:23:01Z</time>
      </trkpt>
      <trkpt lat="43.1048584" lon="23.3919740">
        <ele>682.1926270</ele>
        <time>2008-04-10T09:23:06Z</time>
      </trkpt>
      <trkpt lat="43.1044722" lon="23.3923173">
        <ele>684.5961914</ele>
        <time>2008-04-10T09:23:29Z</time>
      </trkpt>
      <trkpt lat="43.1033564" lon="23.3936262">
        <ele>687.4799805</ele>
        <time>2008-04-10T09:24:42Z</time>
      </trkpt>
      <trkpt lat="43.1035495" lon="23.3945060">
        <ele>691.3251953</ele>
        <time>2008-04-10T09:25:03Z</time>
      </trkpt>
      <trkpt lat="43.1035709" lon="23.3945274">
        <ele>693.2478027</ele>
        <time>2008-04-10T09:25:12Z</time>
      </trkpt>
      <trkpt lat="43.1038070" lon="23.3940125">
        <ele>698.0544434</ele>
        <time>2008-04-10T09:25:34Z</time>
      </trkpt>
      <trkpt lat="43.1044507" lon="23.3933258">
        <ele>704.7836914</ele>
        <time>2008-04-10T09:26:17Z</time>
      </trkpt>
      <trkpt lat="43.1051803" lon="23.3930469">
        <ele>707.1870117</ele>
        <time>2008-04-10T09:27:04Z</time>
      </trkpt>
      <trkpt lat="43.1055665" lon="23.3928537">
        <ele>710.0708008</ele>
        <time>2008-04-10T09:27:33Z</time>
      </trkpt>
      <trkpt lat="43.1058240" lon="23.3919954">
        <ele>716.8002930</ele>
        <time>2008-04-10T09:28:11Z</time>
      </trkpt>
      <trkpt lat="43.1066179" lon="23.3914161">
        <ele>721.6066895</ele>
        <time>2008-04-10T09:29:01Z</time>
      </trkpt>
      <trkpt lat="43.1074333" lon="23.3911157">
        <ele>724.9714355</ele>
        <time>2008-04-10T09:29:47Z</time>
      </trkpt>
      <trkpt lat="43.1078410" lon="23.3909225">
        <ele>726.8940430</ele>
        <time>2008-04-10T09:30:14Z</time>
      </trkpt>
      <trkpt lat="43.1077981" lon="23.3909440">
        <ele>741.3137207</ele>
        <time>2008-04-10T09:31:33Z</time>
      </trkpt>
      <trkpt lat="43.1077766" lon="23.3909869">
        <ele>747.5622559</ele>
        <time>2008-04-10T09:33:10Z</time>
      </trkpt>
      <trkpt lat="43.1082702" lon="23.3906865">
        <ele>748.0432129</ele>
        <time>2008-04-10T09:33:20Z</time>
      </trkpt>
      <trkpt lat="43.1098366" lon="23.3898282">
        <ele>748.0432129</ele>
        <time>2008-04-10T09:33:40Z</time>
      </trkpt>
      <trkpt lat="43.1104589" lon="23.3894205">
        <ele>748.0432129</ele>
        <time>2008-04-10T09:33:49Z</time>
      </trkpt>
      <trkpt lat="43.1083775" lon="23.3886051">
        <ele>749.0043945</ele>
        <time>2008-04-10T09:34:14Z</time>
      </trkpt>
      <trkpt lat="43.1074333" lon="23.3889055">
        <ele>749.4851074</ele>
        <time>2008-04-10T09:34:50Z</time>
      </trkpt>
      <trkpt lat="43.1063819" lon="23.3895493">
        <ele>797.0703125</ele>
        <time>2008-04-10T09:35:31Z</time>
      </trkpt>
      <trkpt lat="43.1060815" lon="23.3895922">
        <ele>797.0703125</ele>
        <time>2008-04-10T09:35:48Z</time>
      </trkpt>
      <trkpt lat="43.1055665" lon="23.3894849">
        <ele>795.1474609</ele>
        <time>2008-04-10T09:36:17Z</time>
      </trkpt>
      <trkpt lat="43.1046438" lon="23.3886695">
        <ele>795.1474609</ele>
        <time>2008-04-10T09:37:05Z</time>
      </trkpt>
      <trkpt lat="43.1040645" lon="23.3886051">
        <ele>793.7055664</ele>
        <time>2008-04-10T09:37:27Z</time>
      </trkpt>
      <trkpt lat="43.1028414" lon="23.3887339">
        <ele>792.7443848</ele>
        <time>2008-04-10T09:37:59Z</time>
      </trkpt>
      <trkpt lat="43.1010175" lon="23.3892059">
        <ele>793.2248535</ele>
        <time>2008-04-10T09:38:51Z</time>
      </trkpt>
      <trkpt lat="43.0997944" lon="23.3899140">
        <ele>792.2636719</ele>
        <time>2008-04-10T09:39:31Z</time>
      </trkpt>
      <trkpt lat="43.0994725" lon="23.3901930">
        <ele>791.3022461</ele>
        <time>2008-04-10T09:39:54Z</time>
      </trkpt>
      <trkpt lat="43.0998588" lon="23.3907080">
        <ele>787.4570313</ele>
        <time>2008-04-10T09:40:46Z</time>
      </trkpt>
      <trkpt lat="43.0996227" lon="23.3907294">
        <ele>786.4958496</ele>
        <time>2008-04-10T09:41:24Z</time>
      </trkpt>
      <trkpt lat="43.0987644" lon="23.3910728">
        <ele>784.0925293</ele>
        <time>2008-04-10T09:41:45Z</time>
      </trkpt>
      <trkpt lat="43.0983567" lon="23.3911371">
        <ele>780.7280273</ele>
        <time>2008-04-10T09:41:51Z</time>
      </trkpt>
      <trkpt lat="43.0972624" lon="23.3910298">
        <ele>773.0373535</ele>
        <time>2008-04-10T09:42:03Z</time>
      </trkpt>
      <trkpt lat="43.0965114" lon="23.3911157">
        <ele>772.0759277</ele>
        <time>2008-04-10T09:42:15Z</time>
      </trkpt>
      <trkpt lat="43.0962110" lon="23.3911371">
        <ele>772.0759277</ele>
        <time>2008-04-10T09:42:27Z</time>
      </trkpt>
      <trkpt lat="43.0958676" lon="23.3912230">
        <ele>773.0373535</ele>
        <time>2008-04-10T09:42:55Z</time>
      </trkpt>
      <trkpt lat="43.0958033" lon="23.3912230">
        <ele>773.0373535</ele>
        <time>2008-04-10T09:43:39Z</time>
      </trkpt>
      <trkpt lat="43.0955672" lon="23.3911800">
        <ele>774.4792480</ele>
        <time>2008-04-10T09:44:27Z</time>
      </trkpt>
      <trkpt lat="43.0947304" lon="23.3908582">
        <ele>775.4404297</ele>
        <time>2008-04-10T09:44:49Z</time>
      </trkpt>
      <trkpt lat="43.0945802" lon="23.3907938">
        <ele>774.9599609</ele>
        <time>2008-04-10T09:44:55Z</time>
      </trkpt>
      <trkpt lat="43.0944943" lon="23.3906865">
        <ele>774.9599609</ele>
        <time>2008-04-10T09:44:58Z</time>
      </trkpt>
      <trkpt lat="43.0943656" lon="23.3903646">
        <ele>774.4792480</ele>
        <time>2008-04-10T09:45:07Z</time>
      </trkpt>
      <trkpt lat="43.0942583" lon="23.3904505">
        <ele>774.4792480</ele>
        <time>2008-04-10T09:45:10Z</time>
      </trkpt>
      <trkpt lat="43.0940437" lon="23.3904719">
        <ele>772.5566406</ele>
        <time>2008-04-10T09:45:14Z</time>
      </trkpt>
      <trkpt lat="43.0939364" lon="23.3904505">
        <ele>771.5952148</ele>
        <time>2008-04-10T09:45:20Z</time>
      </trkpt>
      <trkpt lat="43.0939364" lon="23.3904505">
        <ele>771.1147461</ele>
        <time>2008-04-10T09:45:22Z</time>
      </trkpt>
      <trkpt lat="43.0938721" lon="23.3905149">
        <ele>770.6340332</ele>
        <time>2008-04-10T09:45:27Z</time>
      </trkpt>
      <trkpt lat="43.0937433" lon="23.3905578">
        <ele>766.7888184</ele>
        <time>2008-04-10T09:45:32Z</time>
      </trkpt>
      <trkpt lat="43.0935931" lon="23.3904505">
        <ele>762.4626465</ele>
        <time>2008-04-10T09:45:36Z</time>
      </trkpt>
      <trkpt lat="43.0934000" lon="23.3903432">
        <ele>758.6174316</ele>
        <time>2008-04-10T09:45:40Z</time>
      </trkpt>
      <trkpt lat="43.0930138" lon="23.3902144">
        <ele>754.2917480</ele>
        <time>2008-04-10T09:45:47Z</time>
      </trkpt>
      <trkpt lat="43.0929708" lon="23.3901501">
        <ele>752.8496094</ele>
        <time>2008-04-10T09:45:57Z</time>
      </trkpt>
      <trkpt lat="43.0929279" lon="23.3899999">
        <ele>747.0815430</ele>
        <time>2008-04-10T09:47:40Z</time>
      </trkpt>
      <trkpt lat="43.0927992" lon="23.3893561">
        <ele>742.7558594</ele>
        <time>2008-04-10T09:47:55Z</time>
      </trkpt>
      <trkpt lat="43.0926919" lon="23.3887553">
        <ele>740.8330078</ele>
        <time>2008-04-10T09:48:13Z</time>
      </trkpt>
      <trkpt lat="43.0926275" lon="23.3875966">
        <ele>738.9106445</ele>
        <time>2008-04-10T09:48:39Z</time>
      </trkpt>
      <trkpt lat="43.0926061" lon="23.3869743">
        <ele>736.9877930</ele>
        <time>2008-04-10T09:48:57Z</time>
      </trkpt>
      <trkpt lat="43.0926061" lon="23.3870387">
        <ele>735.0654297</ele>
        <time>2008-04-10T09:49:45Z</time>
      </trkpt>
      <trkpt lat="43.0925202" lon="23.3868885">
        <ele>734.1040039</ele>
        <time>2008-04-10T09:49:50Z</time>
      </trkpt>
      <trkpt lat="43.0923057" lon="23.3863306">
        <ele>732.1813965</ele>
        <time>2008-04-10T09:49:56Z</time>
      </trkpt>
      <trkpt lat="43.0922842" lon="23.3856654">
        <ele>723.5295410</ele>
        <time>2008-04-10T09:50:02Z</time>
      </trkpt>
      <trkpt lat="43.0923057" lon="23.3854294">
        <ele>721.1262207</ele>
        <time>2008-04-10T09:50:04Z</time>
      </trkpt>
      <trkpt lat="43.0924129" lon="23.3849788">
        <ele>714.8774414</ele>
        <time>2008-04-10T09:50:11Z</time>
      </trkpt>
      <trkpt lat="43.0920267" lon="23.3848071">
        <ele>711.9936523</ele>
        <time>2008-04-10T09:50:16Z</time>
      </trkpt>
      <trkpt lat="43.0911469" lon="23.3849788">
        <ele>709.5903320</ele>
        <time>2008-04-10T09:50:24Z</time>
      </trkpt>
      <trkpt lat="43.0910182" lon="23.3850217">
        <ele>709.1096191</ele>
        <time>2008-04-10T09:50:25Z</time>
      </trkpt>
      <trkpt lat="43.0908895" lon="23.3850646">
        <ele>694.2092285</ele>
        <time>2008-04-10T09:51:19Z</time>
      </trkpt>
      <trkpt lat="43.0908680" lon="23.3848929">
        <ele>693.7285156</ele>
        <time>2008-04-10T09:51:44Z</time>
      </trkpt>
      <trkpt lat="43.0908251" lon="23.3849144">
        <ele>685.0769043</ele>
        <time>2008-04-10T09:54:34Z</time>
      </trkpt>
      <trkpt lat="43.0908251" lon="23.3849144">
        <ele>683.6345215</ele>
        <time>2008-04-10T09:55:12Z</time>
      </trkpt>
      <trkpt lat="43.0908680" lon="23.3848500">
        <ele>673.5410156</ele>
        <time>2008-04-10T10:21:37Z</time>
      </trkpt>
      <trkpt lat="43.0908465" lon="23.3850002">
        <ele>664.4082031</ele>
        <time>2008-04-10T10:22:08Z</time>
      </trkpt>
      <trkpt lat="43.0908465" lon="23.3849788">
        <ele>665.8503418</ele>
        <time>2008-04-10T10:22:37Z</time>
      </trkpt>
      <trkpt lat="43.0908680" lon="23.3849573">
        <ele>667.7727051</ele>
        <time>2008-04-10T10:22:52Z</time>
      </trkpt>
      <trkpt lat="43.0908895" lon="23.3848715">
        <ele>667.7727051</ele>
        <time>2008-04-10T10:22:57Z</time>
      </trkpt>
      <trkpt lat="43.0909109" lon="23.3848715">
        <ele>668.2536621</ele>
        <time>2008-04-10T10:23:08Z</time>
      </trkpt>
      <trkpt lat="43.0909109" lon="23.3847857">
        <ele>669.2150879</ele>
        <time>2008-04-10T10:23:34Z</time>
      </trkpt>
      <trkpt lat="43.0909109" lon="23.3847857">
        <ele>669.2150879</ele>
        <time>2008-04-10T10:23:49Z</time>
      </trkpt>
      <trkpt lat="43.0909109" lon="23.3848286">
        <ele>670.6569824</ele>
        <time>2008-04-10T10:25:00Z</time>
      </trkpt>
      <trkpt lat="43.0909109" lon="23.3848071">
        <ele>671.1376953</ele>
        <time>2008-04-10T10:25:30Z</time>
      </trkpt>
      <trkpt lat="43.0910826" lon="23.3846998">
        <ele>671.1376953</ele>
        <time>2008-04-10T10:25:34Z</time>
      </trkpt>
      <trkpt lat="43.0912328" lon="23.3844209">
        <ele>670.1762695</ele>
        <time>2008-04-10T10:25:38Z</time>
      </trkpt>
      <trkpt lat="43.0914903" lon="23.3841419">
        <ele>669.6958008</ele>
        <time>2008-04-10T10:25:44Z</time>
      </trkpt>
      <trkpt lat="43.0915546" lon="23.3839488">
        <ele>669.2150879</ele>
        <time>2008-04-10T10:25:48Z</time>
      </trkpt>
      <trkpt lat="43.0917692" lon="23.3838415">
        <ele>667.7727051</ele>
        <time>2008-04-10T10:25:53Z</time>
      </trkpt>
      <trkpt lat="43.0918550" lon="23.3837986">
        <ele>665.8503418</ele>
        <time>2008-04-10T10:26:02Z</time>
      </trkpt>
      <trkpt lat="43.0918550" lon="23.3837771">
        <ele>665.3696289</ele>
        <time>2008-04-10T10:26:10Z</time>
      </trkpt>
      <trkpt lat="43.0916190" lon="23.3835411">
        <ele>665.3696289</ele>
        <time>2008-04-10T10:26:20Z</time>
      </trkpt>
      <trkpt lat="43.0920911" lon="23.3831549">
        <ele>665.8503418</ele>
        <time>2008-04-10T10:26:46Z</time>
      </trkpt>
      <trkpt lat="43.0911684" lon="23.3825541">
        <ele>665.8503418</ele>
        <time>2008-04-10T10:26:58Z</time>
      </trkpt>
      <trkpt lat="43.0910826" lon="23.3825970">
        <ele>665.8503418</ele>
        <time>2008-04-10T10:27:00Z</time>
      </trkpt>
      <trkpt lat="43.0908036" lon="23.3821464">
        <ele>665.3696289</ele>
        <time>2008-04-10T10:27:13Z</time>
      </trkpt>
      <trkpt lat="43.0906749" lon="23.3824039">
        <ele>624.5136719</ele>
        <time>2008-04-10T10:27:30Z</time>
      </trkpt>
      <trkpt lat="43.0903959" lon="23.3821893">
        <ele>625.4748535</ele>
        <time>2008-04-10T10:32:54Z</time>
      </trkpt>
      <trkpt lat="43.0903745" lon="23.3819747">
        <ele>626.4362793</ele>
        <time>2008-04-10T10:34:53Z</time>
      </trkpt>
      <trkpt lat="43.0905461" lon="23.3817816">
        <ele>626.4362793</ele>
        <time>2008-04-10T10:34:59Z</time>
      </trkpt>
      <trkpt lat="43.0906320" lon="23.3816528">
        <ele>626.4362793</ele>
        <time>2008-04-10T10:35:01Z</time>
      </trkpt>
      <trkpt lat="43.0911040" lon="23.3810735">
        <ele>625.4748535</ele>
        <time>2008-04-10T10:35:18Z</time>
      </trkpt>
      <trkpt lat="43.0911684" lon="23.3808160">
        <ele>623.5524902</ele>
        <time>2008-04-10T10:35:42Z</time>
      </trkpt>
      <trkpt lat="43.0905032" lon="23.3812451">
        <ele>601.4418945</ele>
        <time>2008-04-10T10:37:49Z</time>
      </trkpt>
      <trkpt lat="43.0885077" lon="23.3807302">
        <ele>550.9726563</ele>
        <time>2008-04-10T10:41:41Z</time>
      </trkpt>
      <trkpt lat="43.0884647" lon="23.3807516">
        <ele>548.5693359</ele>
        <time>2008-04-10T10:42:28Z</time>
      </trkpt>
      <trkpt lat="43.0882072" lon="23.3805156">
        <ele>544.7242432</ele>
        <time>2008-04-10T10:42:40Z</time>
      </trkpt>
      <trkpt lat="43.0879712" lon="23.3787131">
        <ele>535.5915527</ele>
        <time>2008-04-10T10:47:14Z</time>
      </trkpt>
      <trkpt lat="43.0878854" lon="23.3786488">
        <ele>535.5915527</ele>
        <time>2008-04-10T10:47:56Z</time>
      </trkpt>
      <trkpt lat="43.0876923" lon="23.3785415">
        <ele>482.2385254</ele>
        <time>2008-04-10T10:48:35Z</time>
      </trkpt>
      <trkpt lat="43.0876279" lon="23.3785629">
        <ele>483.6804199</ele>
        <time>2008-04-10T10:49:16Z</time>
      </trkpt>
      <trkpt lat="43.0876279" lon="23.3785629">
        <ele>483.1998291</ele>
        <time>2008-04-10T10:49:18Z</time>
      </trkpt>
      <trkpt lat="43.0876082" lon="23.3787612"/>
      <trkpt lat="43.0876064" lon="23.3790994">
        <ele>496.6583252</ele>
        <time>2008-04-10T11:08:07Z</time>
      </trkpt>
      <trkpt lat="43.0876307" lon="23.3790811"/>
      <trkpt lat="43.0875498" lon="23.3792348"/>
      <trkpt lat="43.0874991" lon="23.3794427">
        <ele>491.8516846</ele>
        <time>2008-04-10T11:09:59Z</time>
      </trkpt>
      <trkpt lat="43.0875992" lon="23.3800344"/>
      <trkpt lat="43.0876891" lon="23.3801881"/>
      <trkpt lat="43.0877788" lon="23.3803358"/>
      <trkpt lat="43.0877788" lon="23.3805326"/>
      <trkpt lat="43.0877878" lon="23.3806802"/>
      <trkpt lat="43.0878777" lon="23.3806986"/>
      <trkpt lat="43.0879810" lon="23.3808093"/>
      <trkpt lat="43.0881023" lon="23.3809508"/>
      <trkpt lat="43.0882235" lon="23.3812029"/>
      <trkpt lat="43.0883493" lon="23.3814367"/>
      <trkpt lat="43.0884661" lon="23.3816396"/>
      <trkpt lat="43.0884526" lon="23.3817872"/>
      <trkpt lat="43.0884167" lon="23.3820332"/>
      <trkpt lat="43.0883852" lon="23.3822915"/>
      <trkpt lat="43.0886149" lon="23.3823824">
        <ele>471.1833496</ele>
        <time>2008-04-10T11:17:06Z</time>
      </trkpt>
      <trkpt lat="43.0886592" lon="23.3826421"/>
      <trkpt lat="43.0888299" lon="23.3828574"/>
      <trkpt lat="43.0888928" lon="23.3829250"/>
      <trkpt lat="43.0888703" lon="23.3832694"/>
      <trkpt lat="43.0888523" lon="23.3836139"/>
      <trkpt lat="43.0888433" lon="23.3837368"/>
      <trkpt lat="43.0887266" lon="23.3836876"/>
      <trkpt lat="43.0886682" lon="23.3835647"/>
      <trkpt lat="43.0886413" lon="23.3833863"/>
      <trkpt lat="43.0885739" lon="23.3833187"/>
      <trkpt lat="43.0884885" lon="23.3831648"/>
      <trkpt lat="43.0884122" lon="23.3829865"/>
      <trkpt lat="43.0883538" lon="23.3828451"/>
      <trkpt lat="43.0882549" lon="23.3827959"/>
      <trkpt lat="43.0881741" lon="23.3828635"/>
      <trkpt lat="43.0881696" lon="23.3829004"/>
      <trkpt lat="43.0882502" lon="23.3837771">
        <ele>423.5980225</ele>
        <time>2008-04-10T11:28:54Z</time>
      </trkpt>
      <trkpt lat="43.0882716" lon="23.3838630">
        <ele>424.0787354</ele>
        <time>2008-04-10T11:28:59Z</time>
      </trkpt>
      <trkpt lat="43.0880570" lon="23.3840561">
        <ele>424.0787354</ele>
        <time>2008-04-10T11:29:07Z</time>
      </trkpt>
      <trkpt lat="43.0884004" lon="23.3850217">
        <ele>382.7420654</ele>
        <time>2008-04-10T08:15:07Z</time>
      </trkpt>
    </trkseg>
  </trk>

</gpx>
